Data for 05/18/2015

Time Sea-Level Adjusted Pressure Absolute Pressure Temperature Relative Humidity Dew Point   
(mb) (inHg) (mb) (inHg) (C) (F) (%) (C) (F)
00:05 1026 30.3 855 25.25 2.6 36.7 83 0.1 32.2
00:10 1026 30.3 855 25.25 2.6 36.7 82 -0.1 31.9
00:15 1026 30.3 855 25.25 2.7 36.8 82 -0.1 31.8
00:20 1026 30.3 855 25.25 2.7 36.8 82 -0.2 31.7
00:25 1026 30.3 855 25.25 2.6 36.7 82 -0.1 31.8
00:30 1026 30.3 855 25.25 2.6 36.7 82 -0.2 31.7
00:35 1026 30.3 855 25.25 2.6 36.7 81 -0.3 31.5
00:40 1026 30.3 855 25.25 2.6 36.8 81 -0.3 31.5
00:45 1026 30.3 855 25.25 2.6 36.7 81 -0.3 31.4
00:50 1026 30.3 855 25.25 2.6 36.7 81 -0.4 31.3
00:55 1026 30.3 855 25.25 2.6 36.7 80 -0.4 31.2
01:00 1026 30.3 855 25.25 2.6 36.7 80 -0.5 31.1
01:05 1026 30.3 855 25.25 2.6 36.7 79 -0.6 30.9
01:10 1026 30.3 855 25.25 2.7 36.8 79 -0.7 30.8
01:15 1026 30.3 855 25.25 2.6 36.7 79 -0.6 30.9
01:20 1026 30.3 855 25.25 2.6 36.7 79 -0.7 30.7
01:25 1026 30.3 855 25.25 2.6 36.6 78 -0.8 30.5
01:30 1026 30.3 855 25.25 2.6 36.7 78 -0.8 30.5
01:35 1026 30.3 855 25.25 2.6 36.7 78 -0.9 30.4
01:40 1026 30.3 855 25.25 2.6 36.6 78 -0.8 30.5
01:45 1026 30.3 855 25.25 2.5 36.5 78 -0.9 30.4
01:50 1026 30.3 855 25.25 2.5 36.4 78 -0.9 30.3
01:55 1026 30.3 855 25.25 2.4 36.4 78 -1 30.2
02:00 1026 30.3 855 25.25 2.4 36.3 78 -1.1 30.1
02:05 1026 30.3 855 25.25 2.3 36.2 78 -1.1 30.1
02:10 1026 30.3 855 25.25 2.3 36.1 78 -1.1 29.9
02:15 1026 30.3 855 25.25 2.3 36.1 78 -1.2 29.9
02:20 1025 30.27 855 25.25 2.3 36.1 77 -1.3 29.6
02:25 1025 30.27 855 25.25 2.3 36.1 77 -1.4 29.5
02:30 1025 30.27 855 25.25 2.3 36.1 76 -1.6 29.2
02:35 1026 30.3 855 25.25 2.2 36 76 -1.6 29.2
02:40 1026 30.3 855 25.25 2.2 36 76 -1.6 29
02:45 1026 30.3 855 25.25 2.2 36 76 -1.6 29.2
02:50 1026 30.3 855 25.25 2.1 35.8 77 -1.5 29.4
02:55 1026 30.3 855 25.25 2.1 35.8 77 -1.4 29.4
03:00 1026 30.3 855 25.25 2.1 35.8 77 -1.4 29.4
03:05 1026 30.3 855 25.25 2.2 35.9 77 -1.5 29.4
03:10 1026 30.3 855 25.25 2.2 36 77 -1.4 29.5
03:15 1026 30.3 855 25.25 2.2 35.9 77 -1.4 29.5
03:20 1026 30.3 855 25.25 2.1 35.8 78 -1.3 29.6
03:25 1026 30.3 855 25.25 2.1 35.7 78 -1.4 29.4
03:30 1026 30.3 855 25.25 2 35.7 78 -1.4 29.6
03:35 1026 30.3 855 25.25 2 35.7 79 -1.3 29.7
03:40 1026 30.3 855 25.25 2.1 35.7 79 -1.2 29.8
03:45 1026 30.3 855 25.25 2 35.6 79 -1.2 29.9
03:50 1026 30.3 855 25.25 2 35.6 80 -1.1 30.1
03:55 1026 30.3 855 25.25 2 35.5 80 -1.1 30
04:00 1026 30.3 855 25.25 2 35.6 80 -1.1 30.1
04:05 1026 30.3 855 25.25 2 35.5 81 -1 30.2
04:10 1026 30.3 855 25.25 2 35.6 81 -0.9 30.3
04:15 1026 30.3 855 25.25 2 35.5 81 -0.9 30.4
04:20 1026 30.3 855 25.25 2 35.5 81 -1 30.1
04:25 1026 30.3 855 25.25 2 35.6 81 -1 30.3
04:30 1026 30.3 855 25.25 2 35.6 81 -0.9 30.3
04:35 1026 30.3 855 25.25 2 35.6 80 -1 30.2
04:40 1026 30.3 855 25.25 2 35.5 82 -0.8 30.5
04:45 1026 30.3 855 25.25 1.9 35.4 82 -0.9 30.4
04:50 1026 30.3 855 25.25 1.9 35.4 82 -0.9 30.5
04:55 1026 30.3 855 25.25 1.9 35.4 81 -1 30.2
05:00 1026 30.3 855 25.25 1.9 35.5 82 -0.8 30.6
05:05 1026 30.3 855 25.25 1.9 35.4 82 -0.8 30.5
05:10 1026 30.3 855 25.25 1.9 35.3 82 -0.9 30.5
05:15 1026 30.3 855 25.25 1.8 35.3 83 -0.8 30.5
05:20 1026 30.3 855 25.25 1.8 35.3 82 -0.9 30.4
05:25 1026 30.3 855 25.25 1.8 35.3 82 -0.9 30.3
05:30 1026 30.3 855 25.25 1.9 35.4 81 -1 30.2
05:35 1026 30.3 855 25.25 1.9 35.5 80 -1.1 30.1
05:40 1026 30.3 855 25.25 2 35.6 81 -1 30.3
05:45 1026 30.3 855 25.25 2.1 35.7 80 -1.1 30.1
05:50 1026 30.3 855 25.25 2.3 36.1 79 -1.1 30.1
05:55 1026 30.3 855 25.25 2.4 36.4 78 -1 30.2
06:00 1026 30.3 855 25.25 2.4 36.3 77 -1.1 30
06:05 1026 30.3 855 25.25 2.5 36.6 77 -1 30.2
06:10 1026 30.3 855 25.25 2.7 36.8 76 -1.1 30.1
06:15 1026 30.3 855 25.25 2.9 37.3 75 -1 30.1
06:20 1026 30.3 855 25.25 3.3 37.9 73 -1.1 30
06:25 1026 30.3 855 25.25 3.3 37.9 73 -1.2 29.8
06:30 1026 30.3 855 25.25 3.4 38 72 -1.2 29.9
06:35 1026 30.3 855 25.25 3.3 37.9 73 -1 30.1
06:40 1026 30.3 855 25.25 3.1 37.5 74 -1.1 30.1
06:45 1026 30.3 855 25.25 2.9 37.3 75 -1.1 30
06:50 1026 30.3 855 25.25 3 37.4 75 -1 30.2
06:55 1026 30.3 855 25.25 3.1 37.6 74 -1 30.2
07:00 1026 30.3 855 25.25 3.1 37.6 75 -0.9 30.5
07:05 1026 30.3 855 25.25 3 37.4 76 -0.8 30.5
07:10 1026 30.3 855 25.25 2.9 37.2 77 -0.8 30.6
07:15 1026 30.3 855 25.25 2.9 37.3 77 -0.8 30.6
07:20 1026 30.3 855 25.25 2.7 36.9 79 -0.6 30.9
07:25 1026 30.3 855 25.25 2.8 37 77 -0.8 30.6
07:30 1026 30.3 855 25.25 2.7 36.8 79 -0.6 31
07:35 1026 30.3 855 25.25 2.9 37.2 77 -0.7 30.7
07:40 1026 30.3 855 25.25 3.2 37.7 76 -0.6 30.9
07:45 1026 30.3 855 25.25 3.1 37.6 76 -0.8 30.6
07:50 1026 30.3 855 25.25 3.4 38.1 74 -0.7 30.7
07:55 1026 30.3 855 25.25 3.8 38.8 73 -0.7 30.8
08:00 1026 30.3 855 25.25 3.9 39 72 -0.7 30.8
08:05 1026 30.3 855 25.25 3.9 39.1 69 -1.2 29.9
08:10 1026 30.3 855 25.25 3.9 39 69 -1.2 29.9
08:15 1026 30.3 855 25.25 4.3 39.7 68 -1.1 30
08:20 1026 30.3 855 25.25 4.2 39.6 68 -1.2 29.8
08:25 1026 30.3 855 25.25 4.6 40.2 65 -1.4 29.5
08:30 1026 30.3 855 25.25 4.7 40.4 63 -1.7 28.9
08:35 1026 30.3 855 25.25 4.6 40.3 63 -1.8 28.8
08:40 1026 30.3 855 25.25 4.8 40.6 61 -2.1 28.1
08:45 1026 30.3 855 25.25 5 41 62 -1.6 29
08:50 1026 30.3 855 25.25 4.7 40.5 64 -1.5 29.3
08:55 1026 30.3 855 25.25 4.8 40.7 61 -2.1 28.3
09:00 1026 30.3 855 25.25 5 40.9 62 -1.8 28.8
09:05 1026 30.3 855 25.25 4.8 40.6 62 -1.8 28.8
09:10 1026 30.3 855 25.25 5.1 41.2 61 -1.9 28.7
09:15 1026 30.3 855 25.25 5.2 41.3 61 -1.7 28.9
09:20 1026 30.3 855 25.25 4.9 40.8 64 -1.3 29.7
09:25 1026 30.3 855 25.25 5.2 41.3 62 -1.4 29.5
09:30 1026 30.3 855 25.25 5.3 41.5 62 -1.5 29.3
09:35 1026 30.3 855 25.25 5.2 41.4 60 -1.8 28.8
09:40 1026 30.3 855 25.25 5.4 41.7 61 -1.5 29.3
09:45 1026 30.3 855 25.25 5.8 42.4 60 -1.4 29.5
09:50 1026 30.3 855 25.25 5.5 41.8 63 -1.1 30.1
09:55 1026 30.3 855 25.25 4.8 40.6 65 -1.3 29.7
10:00 1026 30.3 855 25.25 4.7 40.5 65 -1.2 29.8
10:05 1026 30.3 855 25.25 5.1 41.1 63 -1.5 29.3
10:10 1026 30.3 855 25.25 5.4 41.7 62 -1.3 29.7
10:15 1025 30.27 855 25.25 5.4 41.7 62 -1.3 29.6
10:20 1025 30.27 855 25.25 5.6 42.1 63 -0.8 30.5
10:25 1025 30.27 855 25.25 5.5 42 63 -1 30.3
10:30 1025 30.27 855 25.25 5.5 41.9 64 -0.7 30.7
10:35 1026 30.3 855 25.25 5.1 41.1 65 -0.9 30.3
10:40 1025 30.27 855 25.25 4.9 40.9 65 -1.1 30
10:45 1025 30.27 855 25.25 4.9 40.8 65 -1.2 29.8
10:50 1025 30.27 855 25.25 5.1 41.2 64 -1.1 30
10:55 1025 30.27 855 25.25 5.4 41.7 63 -1 30.1
11:00 1026 30.3 855 25.25 5.6 42.1 64 -0.5 31
11:05 1026 30.3 855 25.25 5.5 41.8 64 -0.8 30.6
11:10 1025 30.27 855 25.25 5.2 41.4 66 -0.5 31.1
11:15 1025 30.27 855 25.25 5.4 41.7 64 -0.8 30.5
11:20 1025 30.27 855 25.25 6.1 43 64 -0.1 31.8
11:25 1025 30.27 855 25.25 6.1 42.9 64 -0.3 31.5
11:30 1025 30.27 855 25.25 6.5 43.6 62 -0.2 31.6
11:35 1025 30.27 855 25.25 5.8 42.5 64 -0.5 31.1
11:40 1025 30.27 855 25.25 5.5 42 66 -0.4 31.4
11:45 1025 30.27 855 25.25 5.7 42.2 65 -0.4 31.4
11:50 1025 30.27 855 25.25 5.8 42.5 65 -0.2 31.6
11:55 1025 30.27 855 25.25 5.6 42 65 -0.5 31.1
12:00 1025 30.27 855 25.25 5.7 42.2 65 -0.4 31.3
12:05 1025 30.27 854 25.22 5.8 42.4 65 -0.3 31.5
12:10 1025 30.27 855 25.25 5.6 42 65 -0.4 31.3
12:15 1025 30.27 854 25.22 5.7 42.2 65 -0.4 31.2
12:20 1025 30.27 854 25.22 5.9 42.6 63 -0.7 30.7
12:25 1025 30.27 854 25.22 5.9 42.7 64 -0.4 31.2
12:30 1025 30.27 854 25.22 6.1 43 63 -0.4 31.2
12:35 1025 30.27 854 25.22 6.1 43.1 63 -0.3 31.4
12:40 1025 30.27 854 25.22 6.2 43.2 63 -0.3 31.5
12:45 1025 30.27 854 25.22 6.1 43 64 -0.2 31.6
12:50 1025 30.27 854 25.22 6.3 43.4 65 0.3 32.5
12:55 1025 30.27 854 25.22 5.7 42.3 66 -0.2 31.7
13:00 1025 30.27 854 25.22 5.6 42.1 67 -0.1 31.8
13:05 1025 30.27 854 25.22 5.8 42.5 65 -0.2 31.6
13:10 1025 30.27 854 25.22 5.8 42.5 65 -0.3 31.5
13:15 1025 30.27 854 25.22 5.9 42.6 64 -0.4 31.3
13:20 1025 30.27 854 25.22 6.1 43 66 0.2 32.3
13:25 1025 30.27 854 25.22 5.8 42.5 67 0.2 32.3
13:30 1025 30.27 854 25.22 6 42.7 64 -0.4 31.3
13:35 1025 30.27 854 25.22 5.9 42.6 65 -0.2 31.7
13:40 1025 30.27 854 25.22 5.4 41.8 67 -0.2 31.6
13:45 1025 30.27 854 25.22 5.7 42.3 66 -0.1 31.8
13:50 1025 30.27 854 25.22 5.8 42.5 66 0.1 32.1
13:55 1025 30.27 854 25.22 5.6 42 66 -0.2 31.7
14:00 1025 30.27 854 25.22 5.4 41.7 66 -0.4 31.2
14:05 1025 30.27 854 25.22 5.3 41.6 66 -0.4 31.2
14:10 1025 30.27 854 25.22 5.4 41.7 67 -0.3 31.5
14:15 1025 30.27 854 25.22 5.4 41.7 67 -0.3 31.4
14:20 1025 30.27 854 25.22 5.3 41.5 67 -0.3 31.4
14:25 1025 30.27 854 25.22 5.5 42 67 -0.2 31.7
14:30 1024 30.24 854 25.22 5.5 41.9 67 -0.1 31.9
14:35 1024 30.24 854 25.22 5.4 41.7 67 -0.3 31.5
14:40 1024 30.24 854 25.22 5.6 42 66 -0.2 31.6
14:45 1024 30.24 854 25.22 5.7 42.2 66 -0.2 31.7
14:50 1024 30.24 854 25.22 5.6 42.2 67 0.1 32.1
14:55 1024 30.24 854 25.22 5.4 41.7 68 -0.1 31.9
15:00 1024 30.24 854 25.22 5.4 41.7 68 -0 31.9
15:05 1024 30.24 854 25.22 5.4 41.8 69 0.1 32.2
15:10 1024 30.24 854 25.22 5.4 41.7 68 -0.1 31.8
15:15 1024 30.24 854 25.22 5.4 41.8 69 0.3 32.5
15:20 1024 30.24 854 25.22 5.4 41.7 68 0 32.1
15:25 1024 30.24 854 25.22 5.4 41.7 70 0.4 32.6
15:30 1024 30.24 854 25.22 5.4 41.8 70 0.3 32.6
15:35 1024 30.24 854 25.22 5.2 41.3 69 -0 32
15:40 1024 30.24 853 25.19 5.3 41.6 70 0.3 32.5
15:45 1024 30.24 854 25.22 5.4 41.7 69 0.2 32.4
15:50 1024 30.24 854 25.22 5.3 41.5 70 0.2 32.3
15:55 1024 30.24 854 25.22 5.2 41.3 70 0.2 32.4
16:00 1024 30.24 854 25.22 5.2 41.4 70 0.1 32.2
16:05 1024 30.24 854 25.22 5.7 42.2 67 0.1 32.2
16:10 1024 30.24 854 25.22 5.8 42.4 69 0.4 32.8
16:15 1024 30.24 854 25.22 5.5 41.9 68 0 32
16:20 1024 30.24 853 25.19 5.4 41.7 68 0 32.1
16:25 1024 30.24 853 25.19 5.5 41.9 68 0 32.1
16:30 1024 30.24 853 25.19 5.6 42 69 0.3 32.5
16:35 1024 30.24 853 25.19 5.6 42 67 -0 32
16:40 1024 30.24 853 25.19 5.6 42 69 0.3 32.6
16:45 1024 30.24 853 25.19 5.6 42.1 68 0.2 32.4
16:50 1024 30.24 853 25.19 5.4 41.8 69 0.3 32.6
16:55 1024 30.24 853 25.19 5.5 41.9 69 0.4 32.7
17:00 1024 30.24 853 25.19 5.3 41.6 70 0.2 32.4
17:05 1024 30.24 853 25.19 5.5 41.8 68 0.1 32.2
17:10 1024 30.24 853 25.19 5.4 41.8 70 0.4 32.7
17:15 1024 30.24 853 25.19 5.3 41.6 70 0.3 32.5
17:20 1024 30.24 853 25.19 5.3 41.6 70 0.2 32.4
17:25 1024 30.24 853 25.19 5.3 41.5 71 0.4 32.8
17:30 1024 30.24 853 25.19 5.2 41.3 70 0.2 32.3
17:35 1024 30.24 853 25.19 5.1 41.1 70 0.1 32.2
17:40 1024 30.24 853 25.19 5 41.1 71 0.2 32.3
17:45 1024 30.24 853 25.19 5 41 71 0.1 32.2
17:50 1024 30.24 853 25.19 5.3 41.5 70 0.3 32.5
17:55 1024 30.24 853 25.19 5.4 41.7 69 0.3 32.5
18:00 1024 30.24 853 25.19 5.3 41.5 69 0.1 32.2
18:05 1024 30.24 853 25.19 5.2 41.3 70 0.2 32.4
18:10 1024 30.24 853 25.19 5.2 41.3 70 0.1 32.2
18:15 1024 30.24 853 25.19 5 41.1 71 0.1 32.3
18:20 1024 30.24 853 25.19 5.1 41.1 71 0.2 32.3
18:25 1024 30.24 853 25.19 5.1 41.3 70 0.1 32.1
18:30 1024 30.24 853 25.19 5.2 41.4 69 0 32
18:35 1024 30.24 853 25.19 5.2 41.4 70 0.2 32.4
18:40 1024 30.24 853 25.19 5.2 41.4 70 0.3 32.5
18:45 1024 30.24 853 25.19 5.3 41.5 69 0.1 32.3
18:50 1024 30.24 853 25.19 5.3 41.5 69 0.1 32.1
18:55 1024 30.24 853 25.19 5.2 41.4 69 0 32.1
19:00 1024 30.24 853 25.19 5.3 41.5 69 -0 32
19:05 1024 30.24 854 25.22 5.4 41.7 69 0.1 32.2
19:10 1024 30.24 854 25.22 5.4 41.7 70 0.3 32.5
19:15 1024 30.24 854 25.22 5.4 41.7 69 0.2 32.4
19:20 1024 30.24 854 25.22 5.4 41.7 69 0.2 32.4
19:25 1024 30.24 854 25.22 5.3 41.6 69 0.2 32.3
19:30 1024 30.24 853 25.19 5.3 41.6 69 0 32
19:35 1024 30.24 853 25.19 5.3 41.6 69 0 32.1
19:40 1024 30.24 853 25.19 5.3 41.6 68 -0.1 31.9
19:45 1024 30.24 853 25.19 5.3 41.5 68 -0 31.9
19:50 1024 30.24 853 25.19 5.2 41.4 69 0.1 32.1
19:55 1024 30.24 853 25.19 5.2 41.4 69 0 32.1
20:00 1024 30.24 853 25.19 5.3 41.5 69 -0 31.9
20:05 1024 30.24 853 25.19 5.3 41.5 70 0.2 32.4
20:10 1024 30.24 853 25.19 5.2 41.3 70 0.2 32.4
20:15 1024 30.24 853 25.19 5.1 41.3 71 0.3 32.6
20:20 1024 30.24 853 25.19 5.1 41.3 71 0.3 32.5
20:25 1024 30.24 853 25.19 5.2 41.3 71 0.3 32.5
20:30 1024 30.24 853 25.19 5.2 41.4 70 0.3 32.5
20:35 1024 30.24 853 25.19 5.2 41.3 71 0.4 32.7
20:40 1024 30.24 853 25.19 5.2 41.3 72 0.5 32.8
20:45 1024 30.24 853 25.19 5.2 41.3 72 0.5 32.9
20:50 1024 30.24 853 25.19 5.1 41.3 72 0.6 33.1
20:55 1024 30.24 853 25.19 5.1 41.2 73 0.6 33.1
21:00 1024 30.24 853 25.19 5.1 41.1 72 0.5 32.9
21:05 1024 30.24 853 25.19 5.1 41.2 72 0.5 32.8
21:10 1024 30.24 853 25.19 5.1 41.2 72 0.5 33
21:15 1024 30.24 853 25.19 5.2 41.3 71 0.4 32.7
21:20 1024 30.24 853 25.19 5.2 41.4 72 0.6 33
21:25 1024 30.24 853 25.19 5.2 41.4 72 0.5 32.9
21:30 1024 30.24 853 25.19 5.2 41.4 71 0.5 32.9
21:35 1024 30.24 853 25.19 5.2 41.4 72 0.6 33.1
21:40 1024 30.24 853 25.19 5.2 41.3 72 0.6 33
21:45 1024 30.24 853 25.19 5.2 41.3 73 0.6 33.2
21:50 1024 30.24 853 25.19 5.2 41.4 72 0.6 33.1
21:55 1024 30.24 853 25.19 5.2 41.3 72 0.6 33.1
22:00 1024 30.24 853 25.19 5.2 41.3 73 0.7 33.2
22:05 1024 30.24 853 25.19 5.1 41.3 73 0.6 33.1
22:10 1024 30.24 853 25.19 5.2 41.4 72 0.6 33.1
22:15 1024 30.24 853 25.19 5.2 41.3 72 0.6 33.2
22:20 1024 30.24 853 25.19 5.2 41.3 72 0.6 33
22:25 1024 30.24 853 25.19 5.2 41.3 73 0.7 33.3
22:30 1024 30.24 853 25.19 5.1 41.2 73 0.7 33.2
22:35 1024 30.24 853 25.19 5.2 41.3 72 0.6 33.1
22:40 1024 30.24 853 25.19 5.2 41.3 73 0.7 33.2
22:45 1024 30.24 853 25.19 5.2 41.3 73 0.7 33.3
22:50 1024 30.24 853 25.19 5.2 41.3 73 0.7 33.2
22:55 1024 30.24 853 25.19 5.2 41.4 72 0.6 33.2
23:00 1024 30.24 853 25.19 5.2 41.4 72 0.6 33.1
23:05 1024 30.24 853 25.19 5.2 41.4 72 0.7 33.2
23:10 1024 30.24 853 25.19 5.2 41.4 73 0.8 33.4
23:15 1024 30.24 853 25.19 5.2 41.4 73 0.8 33.4
23:20 1024 30.24 853 25.19 5.2 41.4 74 0.9 33.6
23:25 1024 30.24 853 25.19 5.2 41.3 74 0.9 33.6
23:30 1024 30.24 853 25.19 5.2 41.3 74 0.9 33.7
23:35 1024 30.24 853 25.19 5.2 41.3 74 0.9 33.6
23:40 1024 30.24 853 25.19 5.1 41.2 74 1 33.7
23:45 1024 30.24 853 25.19 5.1 41.1 75 1 33.7
23:50 1024 30.24 853 25.19 5.1 41.1 75 0.9 33.7
23:55 1024 30.24 853 25.19 5.1 41.2 74 0.9 33.6
24:00 1024 30.24 853 25.19 5.1 41.2 74 0.9 33.6